sensor_id;sensor_type;location;lat;lon;timestamp;temperature;humidity
78212;SHT31;67490;52.086;5.122;2023-08-30T00:01:16;20.04;58.33
78212;SHT31;67490;52.086;5.122;2023-08-30T00:04:02;20.02;58.26
78212;SHT31;67490;52.086;5.122;2023-08-30T00:06:46;20.02;58.27
78212;SHT31;67490;52.086;5.122;2023-08-30T00:09:31;20.02;58.32
78212;SHT31;67490;52.086;5.122;2023-08-30T00:12:15;20.00;58.32
78212;SHT31;67490;52.086;5.122;2023-08-30T00:15:00;20.06;58.43
78212;SHT31;67490;52.086;5.122;2023-08-30T00:17:43;20.06;58.45
78212;SHT31;67490;52.086;5.122;2023-08-30T00:20:29;20.08;58.32
78212;SHT31;67490;52.086;5.122;2023-08-30T00:23:14;20.06;58.50
78212;SHT31;67490;52.086;5.122;2023-08-30T00:25:58;20.08;58.15
78212;SHT31;67490;52.086;5.122;2023-08-30T00:28:43;20.12;58.29
78212;SHT31;67490;52.086;5.122;2023-08-30T00:31:27;20.12;58.26
78212;SHT31;67490;52.086;5.122;2023-08-30T00:34:11;20.10;58.13
78212;SHT31;67490;52.086;5.122;2023-08-30T00:36:57;20.19;57.95
78212;SHT31;67490;52.086;5.122;2023-08-30T00:39:42;20.20;58.04
78212;SHT31;67490;52.086;5.122;2023-08-30T00:42:26;20.23;57.82
78212;SHT31;67490;52.086;5.122;2023-08-30T00:45:11;20.25;57.71
78212;SHT31;67490;52.086;5.122;2023-08-30T00:47:55;20.25;57.56
78212;SHT31;67490;52.086;5.122;2023-08-30T00:50:41;20.33;57.32
78212;SHT31;67490;52.086;5.122;2023-08-30T00:53:26;20.29;57.49
78212;SHT31;67490;52.086;5.122;2023-08-30T00:56:11;20.26;57.09
78212;SHT31;67490;52.086;5.122;2023-08-30T00:58:56;20.28;56.98
78212;SHT31;67490;52.086;5.122;2023-08-30T01:01:40;20.26;57.03
78212;SHT31;67490;52.086;5.122;2023-08-30T01:04:25;20.30;57.05
78212;SHT31;67490;52.086;5.122;2023-08-30T01:07:09;20.33;56.63
78212;SHT31;67490;52.086;5.122;2023-08-30T01:09:56;20.32;56.14
78212;SHT31;67490;52.086;5.122;2023-08-30T01:12:45;20.33;56.38
78212;SHT31;67490;52.086;5.122;2023-08-30T01:15:34;20.28;56.44
78212;SHT31;67490;52.086;5.122;2023-08-30T01:18:23;20.30;56.21
78212;SHT31;67490;52.086;5.122;2023-08-30T01:21:21;20.30;56.37
78212;SHT31;67490;52.086;5.122;2023-08-30T01:24:13;20.40;56.05
78212;SHT31;67490;52.086;5.122;2023-08-30T01:27:12;20.44;55.88
78212;SHT31;67490;52.086;5.122;2023-08-30T01:29:57;20.43;55.50
78212;SHT31;67490;52.086;5.122;2023-08-30T01:32:43;20.37;55.60
78212;SHT31;67490;52.086;5.122;2023-08-30T01:35:29;20.25;55.33
78212;SHT31;67490;52.086;5.122;2023-08-30T01:38:17;20.29;55.43
78212;SHT31;67490;52.086;5.122;2023-08-30T01:41:02;20.30;55.35
78212;SHT31;67490;52.086;5.122;2023-08-30T01:43:49;20.30;55.12
78212;SHT31;67490;52.086;5.122;2023-08-30T01:46:37;20.30;55.27
78212;SHT31;67490;52.086;5.122;2023-08-30T01:49:21;20.28;54.93
78212;SHT31;67490;52.086;5.122;2023-08-30T01:52:06;20.25;55.30
78212;SHT31;67490;52.086;5.122;2023-08-30T01:54:52;20.25;55.05
78212;SHT31;67490;52.086;5.122;2023-08-30T01:57:37;20.26;54.96
78212;SHT31;67490;52.086;5.122;2023-08-30T02:00:23;20.29;54.71
78212;SHT31;67490;52.086;5.122;2023-08-30T02:03:09;20.32;55.12
78212;SHT31;67490;52.086;5.122;2023-08-30T02:06:00;20.26;54.64
78212;SHT31;67490;52.086;5.122;2023-08-30T02:08:52;20.20;54.92
78212;SHT31;67490;52.086;5.122;2023-08-30T02:11:44;20.20;54.99
78212;SHT31;67490;52.086;5.122;2023-08-30T02:14:31;20.26;54.97
78212;SHT31;67490;52.086;5.122;2023-08-30T02:17:19;20.28;54.78
78212;SHT31;67490;52.086;5.122;2023-08-30T02:20:05;20.18;54.77
78212;SHT31;67490;52.086;5.122;2023-08-30T02:22:50;20.23;54.24
78212;SHT31;67490;52.086;5.122;2023-08-30T02:25:34;20.19;54.72
78212;SHT31;67490;52.086;5.122;2023-08-30T02:28:19;20.22;54.38
78212;SHT31;67490;52.086;5.122;2023-08-30T02:31:03;20.15;55.22
78212;SHT31;67490;52.086;5.122;2023-08-30T02:33:48;20.18;55.02
78212;SHT31;67490;52.086;5.122;2023-08-30T02:36:33;20.04;55.28
78212;SHT31;67490;52.086;5.122;2023-08-30T02:39:17;20.06;55.59
78212;SHT31;67490;52.086;5.122;2023-08-30T02:42:02;20.09;55.27
78212;SHT31;67490;52.086;5.122;2023-08-30T02:44:46;19.99;54.90
78212;SHT31;67490;52.086;5.122;2023-08-30T02:47:31;19.99;55.04
78212;SHT31;67490;52.086;5.122;2023-08-30T02:50:17;19.96;55.20
78212;SHT31;67490;52.086;5.122;2023-08-30T02:53:02;19.99;55.39
78212;SHT31;67490;52.086;5.122;2023-08-30T02:55:47;19.99;54.97
78212;SHT31;67490;52.086;5.122;2023-08-30T02:58:32;20.00;54.76
78212;SHT31;67490;52.086;5.122;2023-08-30T03:01:16;19.92;54.71
78212;SHT31;67490;52.086;5.122;2023-08-30T03:04:01;19.93;54.71
78212;SHT31;67490;52.086;5.122;2023-08-30T03:06:47;19.88;55.10
78212;SHT31;67490;52.086;5.122;2023-08-30T03:09:31;19.89;54.87
78212;SHT31;67490;52.086;5.122;2023-08-30T03:12:15;19.82;54.64
78212;SHT31;67490;52.086;5.122;2023-08-30T03:15:00;19.77;54.67
78212;SHT31;67490;52.086;5.122;2023-08-30T03:17:44;19.75;54.64
78212;SHT31;67490;52.086;5.122;2023-08-30T03:20:28;19.72;54.87
78212;SHT31;67490;52.086;5.122;2023-08-30T03:23:14;19.70;54.91
78212;SHT31;67490;52.086;5.122;2023-08-30T03:25:59;19.67;54.80
78212;SHT31;67490;52.086;5.122;2023-08-30T03:28:44;19.61;55.35
78212;SHT31;67490;52.086;5.122;2023-08-30T03:31:28;19.61;54.91
78212;SHT31;67490;52.086;5.122;2023-08-30T03:34:13;19.65;54.89
78212;SHT31;67490;52.086;5.122;2023-08-30T03:36:58;19.60;55.12
78212;SHT31;67490;52.086;5.122;2023-08-30T03:39:43;19.62;55.18
78212;SHT31;67490;52.086;5.122;2023-08-30T03:42:28;19.55;55.40
78212;SHT31;67490;52.086;5.122;2023-08-30T03:45:12;19.55;55.10
78212;SHT31;67490;52.086;5.122;2023-08-30T03:47:57;19.61;55.52
78212;SHT31;67490;52.086;5.122;2023-08-30T03:50:41;19.62;55.50
78212;SHT31;67490;52.086;5.122;2023-08-30T03:53:25;19.65;55.41
78212;SHT31;67490;52.086;5.122;2023-08-30T03:56:11;19.64;55.36
78212;SHT31;67490;52.086;5.122;2023-08-30T03:58:56;19.62;55.38
78212;SHT31;67490;52.086;5.122;2023-08-30T04:01:40;19.57;55.52
78212;SHT31;67490;52.086;5.122;2023-08-30T04:04:25;19.54;55.51
78212;SHT31;67490;52.086;5.122;2023-08-30T04:07:09;19.49;55.49
78212;SHT31;67490;52.086;5.122;2023-08-30T04:09:53;19.43;55.52
78212;SHT31;67490;52.086;5.122;2023-08-30T04:12:39;19.43;55.40
78212;SHT31;67490;52.086;5.122;2023-08-30T04:15:24;19.46;55.39
78212;SHT31;67490;52.086;5.122;2023-08-30T04:18:08;19.44;55.43
78212;SHT31;67490;52.086;5.122;2023-08-30T04:20:52;19.35;55.87
78212;SHT31;67490;52.086;5.122;2023-08-30T04:23:37;19.34;55.69
78212;SHT31;67490;52.086;5.122;2023-08-30T04:26:21;19.20;55.98
78212;SHT31;67490;52.086;5.122;2023-08-30T04:29:07;19.17;56.16
78212;SHT31;67490;52.086;5.122;2023-08-30T04:31:51;19.11;56.03
78212;SHT31;67490;52.086;5.122;2023-08-30T04:34:36;19.06;56.04
78212;SHT31;67490;52.086;5.122;2023-08-30T04:37:20;19.07;55.72
78212;SHT31;67490;52.086;5.122;2023-08-30T04:40:06;19.02;55.90
78212;SHT31;67490;52.086;5.122;2023-08-30T04:42:51;19.03;55.94
78212;SHT31;67490;52.086;5.122;2023-08-30T04:45:37;18.92;56.00
78212;SHT31;67490;52.086;5.122;2023-08-30T04:48:21;18.77;56.54
78212;SHT31;67490;52.086;5.122;2023-08-30T04:51:05;18.77;56.65
78212;SHT31;67490;52.086;5.122;2023-08-30T04:53:50;18.82;56.69
78212;SHT31;67490;52.086;5.122;2023-08-30T04:56:35;18.82;57.01
78212;SHT31;67490;52.086;5.122;2023-08-30T04:59:19;18.76;56.59
78212;SHT31;67490;52.086;5.122;2023-08-30T05:02:05;18.71;56.67
78212;SHT31;67490;52.086;5.122;2023-08-30T05:04:50;18.62;57.13
78212;SHT31;67490;52.086;5.122;2023-08-30T05:07:34;18.53;57.49
78212;SHT31;67490;52.086;5.122;2023-08-30T05:10:19;18.47;57.61
78212;SHT31;67490;52.086;5.122;2023-08-30T05:13:03;18.49;57.74
78212;SHT31;67490;52.086;5.122;2023-08-30T05:15:47;18.49;57.75
78212;SHT31;67490;52.086;5.122;2023-08-30T05:18:33;18.58;57.69
78212;SHT31;67490;52.086;5.122;2023-08-30T05:21:18;18.66;57.48
78212;SHT31;67490;52.086;5.122;2023-08-30T05:24:02;18.63;57.13
78212;SHT31;67490;52.086;5.122;2023-08-30T05:26:47;18.68;57.58
78212;SHT31;67490;52.086;5.122;2023-08-30T05:29:32;18.75;57.58
78212;SHT31;67490;52.086;5.122;2023-08-30T05:32:17;18.76;57.74
78212;SHT31;67490;52.086;5.122;2023-08-30T05:35:04;18.88;57.51
78212;SHT31;67490;52.086;5.122;2023-08-30T05:37:48;18.89;57.57
78212;SHT31;67490;52.086;5.122;2023-08-30T05:40:32;18.95;57.44
78212;SHT31;67490;52.086;5.122;2023-08-30T05:43:17;19.00;57.70
78212;SHT31;67490;52.086;5.122;2023-08-30T05:46:02;19.06;57.68
78212;SHT31;67490;52.086;5.122;2023-08-30T05:48:47;19.14;57.76
78212;SHT31;67490;52.086;5.122;2023-08-30T05:51:33;19.19;58.21
78212;SHT31;67490;52.086;5.122;2023-08-30T05:54:17;19.20;59.08
78212;SHT31;67490;52.086;5.122;2023-08-30T05:57:02;19.17;59.04
78212;SHT31;67490;52.086;5.122;2023-08-30T05:59:47;19.20;59.39
78212;SHT31;67490;52.086;5.122;2023-08-30T06:02:31;19.19;59.86
78212;SHT31;67490;52.086;5.122;2023-08-30T06:05:16;19.17;59.95
78212;SHT31;67490;52.086;5.122;2023-08-30T06:08:05;19.09;60.75
78212;SHT31;67490;52.086;5.122;2023-08-30T06:10:49;19.11;61.41
78212;SHT31;67490;52.086;5.122;2023-08-30T06:13:34;18.99;62.55
78212;SHT31;67490;52.086;5.122;2023-08-30T06:16:18;18.90;63.38
78212;SHT31;67490;52.086;5.122;2023-08-30T06:19:03;18.86;64.28
78212;SHT31;67490;52.086;5.122;2023-08-30T06:21:47;18.88;64.81
78212;SHT31;67490;52.086;5.122;2023-08-30T06:24:33;18.79;65.21
78212;SHT31;67490;52.086;5.122;2023-08-30T06:27:18;18.72;66.30
78212;SHT31;67490;52.086;5.122;2023-08-30T06:30:03;18.66;66.81
78212;SHT31;67490;52.086;5.122;2023-08-30T06:32:48;18.63;66.87
78212;SHT31;67490;52.086;5.122;2023-08-30T06:35:36;18.58;67.75
78212;SHT31;67490;52.086;5.122;2023-08-30T06:38:21;18.56;67.44
78212;SHT31;67490;52.086;5.122;2023-08-30T06:41:07;18.53;67.95
78212;SHT31;67490;52.086;5.122;2023-08-30T06:43:51;18.58;68.02
78212;SHT31;67490;52.086;5.122;2023-08-30T06:46:36;18.62;68.45
78212;SHT31;67490;52.086;5.122;2023-08-30T06:49:21;18.72;68.69
78212;SHT31;67490;52.086;5.122;2023-08-30T06:52:06;18.79;68.12
78212;SHT31;67490;52.086;5.122;2023-08-30T06:54:50;18.77;68.33
78212;SHT31;67490;52.086;5.122;2023-08-30T06:57:36;18.81;68.25
78212;SHT31;67490;52.086;5.122;2023-08-30T07:00:21;18.81;67.94
78212;SHT31;67490;52.086;5.122;2023-08-30T07:03:06;18.81;68.01
78212;SHT31;67490;52.086;5.122;2023-08-30T07:05:51;18.81;68.18
78212;SHT31;67490;52.086;5.122;2023-08-30T07:08:35;18.77;68.01
78212;SHT31;67490;52.086;5.122;2023-08-30T07:11:20;18.72;68.58
78212;SHT31;67490;52.086;5.122;2023-08-30T07:14:06;18.68;68.31
78212;SHT31;67490;52.086;5.122;2023-08-30T07:16:50;18.65;68.84
78212;SHT31;67490;52.086;5.122;2023-08-30T07:19:34;18.66;68.37
78212;SHT31;67490;52.086;5.122;2023-08-30T07:22:19;18.61;68.47
78212;SHT31;67490;52.086;5.122;2023-08-30T07:25:04;18.47;68.60
78212;SHT31;67490;52.086;5.122;2023-08-30T07:27:50;18.45;69.47
78212;SHT31;67490;52.086;5.122;2023-08-30T07:30:36;18.53;69.18
78212;SHT31;67490;52.086;5.122;2023-08-30T07:33:22;18.55;68.82
78212;SHT31;67490;52.086;5.122;2023-08-30T07:36:07;18.51;68.86
78212;SHT31;67490;52.086;5.122;2023-08-30T07:38:52;18.52;69.54
78212;SHT31;67490;52.086;5.122;2023-08-30T07:41:36;18.59;69.46
78212;SHT31;67490;52.086;5.122;2023-08-30T07:44:21;18.51;69.08
78212;SHT31;67490;52.086;5.122;2023-08-30T07:47:07;18.55;69.00
78212;SHT31;67490;52.086;5.122;2023-08-30T07:49:51;18.56;69.33
78212;SHT31;67490;52.086;5.122;2023-08-30T07:52:36;18.41;69.01
78212;SHT31;67490;52.086;5.122;2023-08-30T07:55:21;18.31;69.56
78212;SHT31;67490;52.086;5.122;2023-08-30T07:58:05;18.32;70.45
78212;SHT31;67490;52.086;5.122;2023-08-30T08:00:50;18.51;70.52
78212;SHT31;67490;52.086;5.122;2023-08-30T08:03:36;18.55;69.96
78212;SHT31;67490;52.086;5.122;2023-08-30T08:06:21;18.59;70.30
78212;SHT31;67490;52.086;5.122;2023-08-30T08:09:05;18.53;69.58
78212;SHT31;67490;52.086;5.122;2023-08-30T08:11:51;18.52;70.22
78212;SHT31;67490;52.086;5.122;2023-08-30T08:14:36;18.48;69.65
78212;SHT31;67490;52.086;5.122;2023-08-30T08:17:20;18.52;69.94
78212;SHT31;67490;52.086;5.122;2023-08-30T08:20:07;18.52;69.78
78212;SHT31;67490;52.086;5.122;2023-08-30T08:22:51;18.47;70.03
78212;SHT31;67490;52.086;5.122;2023-08-30T08:25:36;18.49;70.09
78212;SHT31;67490;52.086;5.122;2023-08-30T08:28:21;18.47;70.43
78212;SHT31;67490;52.086;5.122;2023-08-30T08:31:07;18.59;70.69
78212;SHT31;67490;52.086;5.122;2023-08-30T08:34:07;18.76;70.36
78212;SHT31;67490;52.086;5.122;2023-08-30T08:36:53;18.71;69.85
78212;SHT31;67490;52.086;5.122;2023-08-30T08:39:38;18.76;70.18
78212;SHT31;67490;52.086;5.122;2023-08-30T08:42:22;18.83;70.47
78212;SHT31;67490;52.086;5.122;2023-08-30T08:45:10;18.95;69.49
78212;SHT31;67490;52.086;5.122;2023-08-30T08:47:56;18.86;70.08
78212;SHT31;67490;52.086;5.122;2023-08-30T08:50:40;18.86;70.48
78212;SHT31;67490;52.086;5.122;2023-08-30T08:53:27;18.96;70.06
78212;SHT31;67490;52.086;5.122;2023-08-30T08:56:13;19.00;69.70
78212;SHT31;67490;52.086;5.122;2023-08-30T08:58:59;18.96;70.29
78212;SHT31;67490;52.086;5.122;2023-08-30T09:01:43;18.96;70.17
78212;SHT31;67490;52.086;5.122;2023-08-30T09:04:30;19.06;70.21
78212;SHT31;67490;52.086;5.122;2023-08-30T09:07:15;19.14;70.11
78212;SHT31;67490;52.086;5.122;2023-08-30T09:10:01;19.23;69.79
78212;SHT31;67490;52.086;5.122;2023-08-30T09:12:46;19.34;69.93
78212;SHT31;67490;52.086;5.122;2023-08-30T09:15:33;19.38;69.50
78212;SHT31;67490;52.086;5.122;2023-08-30T09:18:19;19.38;69.74
78212;SHT31;67490;52.086;5.122;2023-08-30T09:21:06;19.40;69.74
78212;SHT31;67490;52.086;5.122;2023-08-30T09:23:57;19.54;69.73
78212;SHT31;67490;52.086;5.122;2023-08-30T09:26:47;19.64;69.77
78212;SHT31;67490;52.086;5.122;2023-08-30T09:29:31;19.79;69.42
78212;SHT31;67490;52.086;5.122;2023-08-30T09:32:21;19.81;69.65
78212;SHT31;67490;52.086;5.122;2023-08-30T09:35:06;19.91;69.52
78212;SHT31;67490;52.086;5.122;2023-08-30T09:37:50;19.96;69.54
78212;SHT31;67490;52.086;5.122;2023-08-30T09:40:35;19.95;69.42
78212;SHT31;67490;52.086;5.122;2023-08-30T09:43:21;20.00;69.65
78212;SHT31;67490;52.086;5.122;2023-08-30T09:46:09;20.10;69.47
78212;SHT31;67490;52.086;5.122;2023-08-30T09:48:53;20.12;69.47
78212;SHT31;67490;52.086;5.122;2023-08-30T09:51:39;20.29;69.88
78212;SHT31;67490;52.086;5.122;2023-08-30T09:54:27;20.43;69.70
78212;SHT31;67490;52.086;5.122;2023-08-30T09:57:13;20.61;68.96
78212;SHT31;67490;52.086;5.122;2023-08-30T10:00:01;20.85;68.52
78212;SHT31;67490;52.086;5.122;2023-08-30T10:02:48;20.97;66.95
78212;SHT31;67490;52.086;5.122;2023-08-30T10:05:33;21.14;66.92
78212;SHT31;67490;52.086;5.122;2023-08-30T10:08:20;21.42;67.47
78212;SHT31;67490;52.086;5.122;2023-08-30T10:11:05;21.62;65.60
78212;SHT31;67490;52.086;5.122;2023-08-30T10:13:51;21.83;64.49
78212;SHT31;67490;52.086;5.122;2023-08-30T10:16:42;22.03;63.69
78212;SHT31;67490;52.086;5.122;2023-08-30T10:19:29;21.86;62.94
78212;SHT31;67490;52.086;5.122;2023-08-30T10:22:15;22.76;60.80
78212;SHT31;67490;52.086;5.122;2023-08-30T10:25:04;23.42;56.83
78212;SHT31;67490;52.086;5.122;2023-08-30T10:27:50;23.64;54.99
78212;SHT31;67490;52.086;5.122;2023-08-30T10:30:35;24.09;53.02
78212;SHT31;67490;52.086;5.122;2023-08-30T10:33:21;24.50;53.57
78212;SHT31;67490;52.086;5.122;2023-08-30T10:36:10;24.35;49.74
78212;SHT31;67490;52.086;5.122;2023-08-30T10:38:54;24.69;52.38
78212;SHT31;67490;52.086;5.122;2023-08-30T10:41:54;24.59;51.44
78212;SHT31;67490;52.086;5.122;2023-08-30T10:44:48;23.85;50.68
78212;SHT31;67490;52.086;5.122;2023-08-30T10:47:35;23.26;53.93
78212;SHT31;67490;52.086;5.122;2023-08-30T10:50:29;23.03;53.23
78212;SHT31;67490;52.086;5.122;2023-08-30T10:53:14;22.95;53.07
78212;SHT31;67490;52.086;5.122;2023-08-30T10:56:10;22.83;55.51
78212;SHT31;67490;52.086;5.122;2023-08-30T10:58:54;22.72;55.31
78212;SHT31;67490;52.086;5.122;2023-08-30T11:01:39;22.71;55.72
78212;SHT31;67490;52.086;5.122;2023-08-30T11:04:23;22.72;55.31
78212;SHT31;67490;52.086;5.122;2023-08-30T11:07:11;22.38;56.26
78212;SHT31;67490;52.086;5.122;2023-08-30T11:09:55;22.35;57.05
78212;SHT31;67490;52.086;5.122;2023-08-30T11:12:40;22.22;56.12
78212;SHT31;67490;52.086;5.122;2023-08-30T11:15:26;22.25;57.72
78212;SHT31;67490;52.086;5.122;2023-08-30T11:18:10;22.21;57.79
78212;SHT31;67490;52.086;5.122;2023-08-30T11:20:59;22.00;57.64
78212;SHT31;67490;52.086;5.122;2023-08-30T11:23:46;22.10;58.14
78212;SHT31;67490;52.086;5.122;2023-08-30T11:26:31;22.20;58.04
78212;SHT31;67490;52.086;5.122;2023-08-30T11:29:15;22.22;57.02
78212;SHT31;67490;52.086;5.122;2023-08-30T11:32:00;22.07;55.79
78212;SHT31;67490;52.086;5.122;2023-08-30T11:34:55;22.13;55.27
78212;SHT31;67490;52.086;5.122;2023-08-30T11:37:40;22.13;54.61
78212;SHT31;67490;52.086;5.122;2023-08-30T11:40:27;22.22;54.57
78212;SHT31;67490;52.086;5.122;2023-08-30T11:43:12;22.41;53.56
78212;SHT31;67490;52.086;5.122;2023-08-30T11:45:56;22.45;52.84
78212;SHT31;67490;52.086;5.122;2023-08-30T11:48:42;22.55;53.08
78212;SHT31;67490;52.086;5.122;2023-08-30T11:51:26;22.73;53.01
78212;SHT31;67490;52.086;5.122;2023-08-30T11:54:11;22.64;53.06
78212;SHT31;67490;52.086;5.122;2023-08-30T11:56:57;22.62;53.20
78212;SHT31;67490;52.086;5.122;2023-08-30T11:59:41;22.61;52.31
78212;SHT31;67490;52.086;5.122;2023-08-30T12:02:26;22.64;50.97
78212;SHT31;67490;52.086;5.122;2023-08-30T12:05:12;22.69;50.73
78212;SHT31;67490;52.086;5.122;2023-08-30T12:07:56;22.83;50.42
78212;SHT31;67490;52.086;5.122;2023-08-30T12:10:40;23.02;50.44
78212;SHT31;67490;52.086;5.122;2023-08-30T12:13:28;23.12;49.63
78212;SHT31;67490;52.086;5.122;2023-08-30T12:16:15;22.83;46.83
78212;SHT31;67490;52.086;5.122;2023-08-30T12:19:08;22.79;49.33
78212;SHT31;67490;52.086;5.122;2023-08-30T12:21:53;22.81;48.86
78212;SHT31;67490;52.086;5.122;2023-08-30T12:24:42;22.75;48.85
78212;SHT31;67490;52.086;5.122;2023-08-30T12:27:27;22.51;49.14
78212;SHT31;67490;52.086;5.122;2023-08-30T12:30:13;22.64;49.22
78212;SHT31;67490;52.086;5.122;2023-08-30T12:33:00;22.54;47.70
78212;SHT31;67490;52.086;5.122;2023-08-30T12:35:45;22.72;47.79
78212;SHT31;67490;52.086;5.122;2023-08-30T12:38:29;22.65;46.37
78212;SHT31;67490;52.086;5.122;2023-08-30T12:41:15;22.73;47.36
78212;SHT31;67490;52.086;5.122;2023-08-30T12:44:00;22.93;48.11
78212;SHT31;67490;52.086;5.122;2023-08-30T12:46:47;23.12;46.82
78212;SHT31;67490;52.086;5.122;2023-08-30T12:49:31;23.03;46.67
78212;SHT31;67490;52.086;5.122;2023-08-30T12:52:15;22.93;48.54
78212;SHT31;67490;52.086;5.122;2023-08-30T12:55:00;22.73;48.73
78212;SHT31;67490;52.086;5.122;2023-08-30T12:57:44;22.62;49.33
78212;SHT31;67490;52.086;5.122;2023-08-30T13:00:30;22.62;50.20
78212;SHT31;67490;52.086;5.122;2023-08-30T13:03:16;22.61;50.83
78212;SHT31;67490;52.086;5.122;2023-08-30T13:06:00;22.47;50.00
78212;SHT31;67490;52.086;5.122;2023-08-30T13:08:45;22.43;50.32
78212;SHT31;67490;52.086;5.122;2023-08-30T13:11:30;22.54;50.97
78212;SHT31;67490;52.086;5.122;2023-08-30T13:14:16;22.65;50.59
78212;SHT31;67490;52.086;5.122;2023-08-30T13:17:01;22.66;50.67
78212;SHT31;67490;52.086;5.122;2023-08-30T13:19:47;22.71;51.09
78212;SHT31;67490;52.086;5.122;2023-08-30T13:22:31;22.51;52.55
78212;SHT31;67490;52.086;5.122;2023-08-30T13:25:16;22.48;53.42
78212;SHT31;67490;52.086;5.122;2023-08-30T13:28:00;22.76;53.50
78212;SHT31;67490;52.086;5.122;2023-08-30T13:30:45;22.85;53.01
78212;SHT31;67490;52.086;5.122;2023-08-30T13:33:30;22.73;50.77
78212;SHT31;67490;52.086;5.122;2023-08-30T13:36:16;22.81;49.67
78212;SHT31;67490;52.086;5.122;2023-08-30T13:39:00;22.82;50.72
78212;SHT31;67490;52.086;5.122;2023-08-30T13:41:45;22.61;53.67
78212;SHT31;67490;52.086;5.122;2023-08-30T13:44:30;22.24;56.64
78212;SHT31;67490;52.086;5.122;2023-08-30T13:47:14;21.55;58.61
78212;SHT31;67490;52.086;5.122;2023-08-30T13:50:00;21.05;61.43
78212;SHT31;67490;52.086;5.122;2023-08-30T13:52:46;20.91;64.28
78212;SHT31;67490;52.086;5.122;2023-08-30T13:55:31;20.78;64.74
78212;SHT31;67490;52.086;5.122;2023-08-30T13:58:17;20.83;65.37
78212;SHT31;67490;52.086;5.122;2023-08-30T14:01:01;20.90;65.84
78212;SHT31;67490;52.086;5.122;2023-08-30T14:03:46;20.73;63.81
78212;SHT31;67490;52.086;5.122;2023-08-30T14:06:30;20.71;64.40
78212;SHT31;67490;52.086;5.122;2023-08-30T14:09:16;20.85;65.75
78212;SHT31;67490;52.086;5.122;2023-08-30T14:12:00;20.91;64.73
78212;SHT31;67490;52.086;5.122;2023-08-30T14:14:45;20.98;65.40
78212;SHT31;67490;52.086;5.122;2023-08-30T14:17:30;21.14;66.23
78212;SHT31;67490;52.086;5.122;2023-08-30T14:20:14;21.35;65.50
78212;SHT31;67490;52.086;5.122;2023-08-30T14:22:58;21.55;64.94
78212;SHT31;67490;52.086;5.122;2023-08-30T14:25:44;21.60;65.10
78212;SHT31;67490;52.086;5.122;2023-08-30T14:28:29;21.75;65.26
78212;SHT31;67490;52.086;5.122;2023-08-30T14:31:13;21.67;64.13
78212;SHT31;67490;52.086;5.122;2023-08-30T14:33:58;21.43;61.83
78212;SHT31;67490;52.086;5.122;2023-08-30T14:36:42;21.42;61.36
78212;SHT31;67490;52.086;5.122;2023-08-30T14:39:27;21.45;58.82
78212;SHT31;67490;52.086;5.122;2023-08-30T14:42:13;21.34;61.19
78212;SHT31;67490;52.086;5.122;2023-08-30T14:44:57;21.09;60.52
78212;SHT31;67490;52.086;5.122;2023-08-30T14:47:42;21.07;61.87
78212;SHT31;67490;52.086;5.122;2023-08-30T14:50:26;20.94;60.88
78212;SHT31;67490;52.086;5.122;2023-08-30T14:53:11;20.99;61.94
78212;SHT31;67490;52.086;5.122;2023-08-30T14:55:56;21.12;62.24
78212;SHT31;67490;52.086;5.122;2023-08-30T14:58:41;21.08;62.39
78212;SHT31;67490;52.086;5.122;2023-08-30T15:01:26;21.02;61.68
78212;SHT31;67490;52.086;5.122;2023-08-30T15:04:10;21.07;62.97
78212;SHT31;67490;52.086;5.122;2023-08-30T15:06:54;21.18;62.08
78212;SHT31;67490;52.086;5.122;2023-08-30T15:09:39;21.22;61.90
78212;SHT31;67490;52.086;5.122;2023-08-30T15:12:23;21.14;62.06
78212;SHT31;67490;52.086;5.122;2023-08-30T15:15:10;20.98;61.22
78212;SHT31;67490;52.086;5.122;2023-08-30T15:17:54;20.92;61.81
78212;SHT31;67490;52.086;5.122;2023-08-30T15:20:39;20.95;62.16
78212;SHT31;67490;52.086;5.122;2023-08-30T15:23:23;21.09;61.78
78212;SHT31;67490;52.086;5.122;2023-08-30T15:26:08;21.21;61.59
78212;SHT31;67490;52.086;5.122;2023-08-30T15:28:54;21.36;61.68
78212;SHT31;67490;52.086;5.122;2023-08-30T15:31:40;21.36;60.29
78212;SHT31;67490;52.086;5.122;2023-08-30T15:34:25;21.42;61.19
78212;SHT31;67490;52.086;5.122;2023-08-30T15:37:09;21.22;59.67
78212;SHT31;67490;52.086;5.122;2023-08-30T15:39:59;21.04;60.28
78212;SHT31;67490;52.086;5.122;2023-08-30T15:42:47;20.87;61.49
78212;SHT31;67490;52.086;5.122;2023-08-30T15:45:32;20.90;60.97
78212;SHT31;67490;52.086;5.122;2023-08-30T15:48:19;20.84;62.86
78212;SHT31;67490;52.086;5.122;2023-08-30T15:51:03;20.73;61.23
78212;SHT31;67490;52.086;5.122;2023-08-30T15:53:47;20.78;61.49
78212;SHT31;67490;52.086;5.122;2023-08-30T15:56:31;20.88;59.83
78212;SHT31;67490;52.086;5.122;2023-08-30T15:59:16;20.99;60.51
78212;SHT31;67490;52.086;5.122;2023-08-30T16:02:01;21.01;59.32
78212;SHT31;67490;52.086;5.122;2023-08-30T16:04:47;21.05;60.04
78212;SHT31;67490;52.086;5.122;2023-08-30T16:07:31;21.04;58.52
78212;SHT31;67490;52.086;5.122;2023-08-30T16:10:16;21.11;58.92
78212;SHT31;67490;52.086;5.122;2023-08-30T16:13:01;21.08;57.14
78212;SHT31;67490;52.086;5.122;2023-08-30T16:15:45;21.08;56.67
78212;SHT31;67490;52.086;5.122;2023-08-30T16:18:29;21.15;57.53
78212;SHT31;67490;52.086;5.122;2023-08-30T16:21:15;21.22;56.86
78212;SHT31;67490;52.086;5.122;2023-08-30T16:24:00;21.29;57.18
78212;SHT31;67490;52.086;5.122;2023-08-30T16:26:44;21.12;55.79
78212;SHT31;67490;52.086;5.122;2023-08-30T16:29:29;20.99;54.37
78212;SHT31;67490;52.086;5.122;2023-08-30T16:32:13;20.92;54.96
78212;SHT31;67490;52.086;5.122;2023-08-30T16:34:58;20.90;54.88
78212;SHT31;67490;52.086;5.122;2023-08-30T16:37:44;20.95;55.13
78212;SHT31;67490;52.086;5.122;2023-08-30T16:40:29;20.95;54.02
78212;SHT31;67490;52.086;5.122;2023-08-30T16:43:13;20.99;54.44
78212;SHT31;67490;52.086;5.122;2023-08-30T16:45:58;20.95;54.96
78212;SHT31;67490;52.086;5.122;2023-08-30T16:48:42;21.02;55.31
78212;SHT31;67490;52.086;5.122;2023-08-30T16:51:26;21.14;55.98
78212;SHT31;67490;52.086;5.122;2023-08-30T16:54:12;21.15;56.51
78212;SHT31;67490;52.086;5.122;2023-08-30T16:56:57;21.25;56.71
78212;SHT31;67490;52.086;5.122;2023-08-30T16:59:43;21.07;54.02
78212;SHT31;67490;52.086;5.122;2023-08-30T17:02:27;21.12;54.31
78212;SHT31;67490;52.086;5.122;2023-08-30T17:05:12;21.17;56.26
78212;SHT31;67490;52.086;5.122;2023-08-30T17:07:57;21.21;54.26
78212;SHT31;67490;52.086;5.122;2023-08-30T17:10:43;21.04;53.92
78212;SHT31;67490;52.086;5.122;2023-08-30T17:13:27;20.91;54.21
78212;SHT31;67490;52.086;5.122;2023-08-30T17:16:14;20.83;54.71
78212;SHT31;67490;52.086;5.122;2023-08-30T17:18:58;20.85;54.03
78212;SHT31;67490;52.086;5.122;2023-08-30T17:21:43;20.87;54.48
78212;SHT31;67490;52.086;5.122;2023-08-30T17:24:27;20.95;54.39